createdAt,value
2017-07-14T00:00:03.282Z,1017.81
2017-07-14T00:05:02.962Z,1017.76
2017-07-14T00:10:03.475Z,1017.69
2017-07-14T00:15:02.781Z,1017.58
2017-07-14T00:20:03.274Z,1017.62
2017-07-14T00:25:02.665Z,1017.5
2017-07-14T00:30:03.211Z,1017.5
2017-07-14T00:35:02.802Z,1017.46
2017-07-14T00:40:03.440Z,1017.43
2017-07-14T00:45:02.687Z,1017.38
2017-07-14T00:50:03.295Z,1017.3
2017-07-14T00:55:02.729Z,1017.24
2017-07-14T01:00:03.195Z,1017.26
2017-07-14T01:05:02.751Z,1017.24
2017-07-14T01:10:03.247Z,1017.19
2017-07-14T01:15:02.688Z,1017.12
2017-07-14T01:20:03.108Z,1017.11
2017-07-14T01:25:03.505Z,1017.04
2017-07-14T01:30:02.897Z,1017.04
2017-07-14T01:35:03.357Z,1017.06
2017-07-14T01:40:02.788Z,1016.96
2017-07-14T01:45:03.259Z,1016.9
2017-07-14T01:50:02.886Z,1016.88
2017-07-14T01:55:03.445Z,1016.79
2017-07-14T02:00:02.852Z,1016.76
2017-07-14T02:05:03.131Z,1016.77
2017-07-14T02:10:03.680Z,1016.76
2017-07-14T02:15:03.218Z,1016.74
2017-07-14T02:20:03.656Z,1016.7
2017-07-14T02:25:03.271Z,1016.73
2017-07-14T02:30:02.548Z,1016.7
2017-07-14T02:35:03.228Z,1016.66
2017-07-14T02:40:02.934Z,1016.67
2017-07-14T02:45:03.556Z,1016.55
2017-07-14T02:50:02.840Z,1016.61
2017-07-14T02:55:03.158Z,1016.54
2017-07-14T03:00:03.581Z,1016.5
2017-07-14T03:05:02.859Z,1016.46
2017-07-14T03:10:03.341Z,1016.38
2017-07-14T03:15:02.707Z,1016.41
2017-07-14T03:20:03.308Z,1016.43
2017-07-14T03:25:02.746Z,1016.33
2017-07-14T03:30:03.166Z,1016.39
2017-07-14T03:35:02.713Z,1016.4
2017-07-14T03:40:03.413Z,1016.47
2017-07-14T03:45:02.692Z,1016.44
2017-07-14T03:50:03.210Z,1016.52
2017-07-14T03:55:02.803Z,1016.52
2017-07-14T04:00:03.559Z,1016.53
2017-07-14T04:05:02.906Z,1016.54
2017-07-14T04:10:03.525Z,1016.57
2017-07-14T04:15:02.836Z,1016.49
2017-07-14T04:20:03.343Z,1016.45
2017-07-14T04:25:02.765Z,1016.48
2017-07-14T04:30:03.279Z,1016.52
2017-07-14T04:35:02.725Z,1016.46
2017-07-14T04:40:03.388Z,1016.44
2017-07-14T04:45:02.672Z,1016.48
2017-07-14T04:50:03.227Z,1016.52
2017-07-14T04:55:02.704Z,1016.52
2017-07-14T05:00:03.423Z,1016.46
2017-07-14T05:05:02.939Z,1016.42
2017-07-14T05:10:03.564Z,1016.43
2017-07-14T05:15:02.883Z,1016.42
2017-07-14T05:20:03.386Z,1016.48
2017-07-14T05:25:02.645Z,1016.44
2017-07-14T05:30:03.076Z,1016.47
2017-07-14T05:35:02.920Z,1016.38
2017-07-14T05:40:03.002Z,1016.34
2017-07-14T05:45:03.108Z,1016.29
2017-07-14T05:50:03.351Z,1016.23
2017-07-14T05:55:03.529Z,1016.26
2017-07-14T06:00:03.664Z,1016.23
2017-07-14T06:05:03.756Z,1016.23
2017-07-14T06:10:03.823Z,1016.23
2017-07-14T06:15:02.702Z,1016.2
2017-07-14T06:20:03.813Z,1016.19
2017-07-14T06:25:02.730Z,1016.15
2017-07-14T06:30:02.910Z,1016.16
2017-07-14T06:35:03.205Z,1016.2
2017-07-14T06:40:03.158Z,1016.13
2017-07-14T06:45:03.436Z,1016.05
2017-07-14T06:50:03.691Z,1016.01
2017-07-14T06:55:02.751Z,1016.07
2017-07-14T07:00:02.869Z,1016.16
2017-07-14T07:05:03.092Z,1016.12
2017-07-14T07:10:03.198Z,1016.11
2017-07-14T07:15:03.478Z,1016.1
2017-07-14T07:20:03.633Z,1016.14
2017-07-14T07:25:03.778Z,1016.16
2017-07-14T07:30:03.813Z,1016.2
2017-07-14T07:35:02.837Z,1016.21
2017-07-14T07:40:02.983Z,1016.19
2017-07-14T07:45:03.404Z,1016.13
2017-07-14T07:50:03.561Z,1016.13
2017-07-14T07:55:03.765Z,1016.13
2017-07-14T08:00:03.949Z,1016.06
2017-07-14T08:05:03.360Z,1016.08
2017-07-14T08:10:03.662Z,1016.02
2017-07-14T08:15:03.679Z,1016.02
2017-07-14T08:20:03.841Z,1016.06
2017-07-14T08:25:03.422Z,1016.03
2017-07-14T08:30:03.433Z,1015.95
2017-07-14T08:35:02.923Z,1015.97
2017-07-14T08:40:03.450Z,1016
2017-07-14T08:45:02.896Z,1016.04
2017-07-14T08:50:03.407Z,1015.89
2017-07-14T08:55:02.701Z,1015.89
2017-07-14T09:00:03.287Z,1015.93
2017-07-14T09:05:03.035Z,1015.94
2017-07-14T09:10:02.845Z,1015.86
2017-07-14T09:15:03.322Z,1015.8
2017-07-14T09:20:02.669Z,1015.88
2017-07-14T09:25:03.307Z,1015.89
2017-07-14T09:30:02.826Z,1015.95
2017-07-14T09:35:03.487Z,1015.96
2017-07-14T09:40:02.792Z,1015.97
2017-07-14T09:45:03.281Z,1015.9
2017-07-14T09:50:02.881Z,1015.92
2017-07-14T09:55:03.486Z,1015.96
2017-07-14T10:00:03.237Z,1015.97
2017-07-14T10:05:02.555Z,1015.9
2017-07-14T10:10:03.169Z,1015.98
2017-07-14T10:15:02.710Z,1015.95
2017-07-14T10:20:03.217Z,1015.95
2017-07-14T10:25:02.712Z,1015.86
2017-07-14T10:30:03.183Z,1015.88
2017-07-14T10:35:02.663Z,1015.86
2017-07-14T10:40:03.322Z,1015.83
2017-07-14T10:45:02.933Z,1015.83
2017-07-14T10:50:03.404Z,1015.78
2017-07-14T10:55:02.843Z,1015.81
2017-07-14T11:00:03.306Z,1015.72
2017-07-14T11:05:02.927Z,1015.77
2017-07-14T11:10:03.544Z,1015.69
2017-07-14T11:15:02.999Z,1015.71
2017-07-14T11:20:02.570Z,1015.76
2017-07-14T11:25:03.167Z,1015.78
2017-07-14T11:30:03.650Z,1015.72
2017-07-14T11:35:03.215Z,1015.74
2017-07-14T11:40:02.724Z,1015.67
2017-07-14T11:45:03.475Z,1015.62
2017-07-14T11:50:02.896Z,1015.58
2017-07-14T11:55:03.368Z,1015.5
2017-07-14T12:00:02.861Z,1015.61
2017-07-14T12:05:03.501Z,1015.61
2017-07-14T12:10:02.949Z,1015.56
2017-07-14T12:15:03.433Z,1015.54
2017-07-14T12:20:03.234Z,1015.45
2017-07-14T12:25:02.748Z,1015.53
2017-07-14T12:30:03.363Z,1015.45
2017-07-14T12:35:02.981Z,1015.52
2017-07-14T12:40:03.630Z,1015.46
2017-07-14T12:45:03.273Z,1015.36
2017-07-14T12:50:02.767Z,1015.39
2017-07-14T12:55:03.266Z,1015.34
2017-07-14T13:00:02.880Z,1015.32
2017-07-14T13:05:03.567Z,1015.24
2017-07-14T13:10:03.009Z,1015.21
2017-07-14T13:15:02.585Z,1015.18
2017-07-14T13:20:03.401Z,1015.3
2017-07-14T13:25:02.881Z,1015.41
2017-07-14T13:30:03.495Z,1015.43
2017-07-14T13:35:02.911Z,1015.4
2017-07-14T13:40:03.594Z,1015.42
2017-07-14T13:45:03.000Z,1015.53
2017-07-14T13:50:03.681Z,1015.61
2017-07-14T13:55:03.257Z,1015.53
2017-07-14T14:00:02.677Z,1015.8
2017-07-14T14:05:03.276Z,1015.72
2017-07-14T14:10:02.831Z,1015.64
2017-07-14T14:15:03.299Z,1015.58
2017-07-14T14:20:02.629Z,1015.71
2017-07-14T14:25:03.134Z,1015.76
2017-07-14T14:30:02.682Z,1015.87
2017-07-14T14:35:03.395Z,1015.99
2017-07-14T14:40:02.899Z,1016.1
2017-07-14T14:45:03.512Z,1016.17
2017-07-14T14:50:02.792Z,1016.24
2017-07-14T14:55:03.397Z,1016.18
2017-07-14T15:00:02.654Z,1016.21
2017-07-14T15:05:03.301Z,1016.26
2017-07-14T15:10:02.816Z,1016.28
2017-07-14T15:15:03.278Z,1016.26
2017-07-14T15:20:02.849Z,1016.17
2017-07-14T15:25:03.383Z,1016.09
2017-07-14T15:30:03.028Z,1016.11
2017-07-14T15:35:02.653Z,1016.21
2017-07-14T15:40:03.244Z,1016.18
2017-07-14T15:45:02.851Z,1016.12
2017-07-14T15:50:03.334Z,1016.12
2017-07-14T15:55:02.598Z,1016.14
2017-07-14T16:00:03.158Z,1016.14
2017-07-14T16:05:02.781Z,1016.17
2017-07-14T16:10:03.389Z,1016.16
2017-07-14T16:15:02.995Z,1016.14
2017-07-14T16:20:03.587Z,1016.24
2017-07-14T16:25:03.039Z,1016.19
2017-07-14T16:30:02.857Z,1016.36
2017-07-14T16:35:03.366Z,1016.43
2017-07-14T16:40:02.689Z,1016.4
2017-07-14T16:45:03.114Z,1016.36
2017-07-14T16:50:02.757Z,1016.4
2017-07-14T16:55:03.273Z,1016.48
2017-07-14T17:00:02.759Z,1016.52
2017-07-14T17:05:03.358Z,1016.53
2017-07-14T17:10:02.804Z,1016.59
2017-07-14T17:15:03.368Z,1016.57
2017-07-14T17:20:02.814Z,1016.6
2017-07-14T17:25:03.373Z,1016.63
2017-07-14T17:30:02.741Z,1016.73
2017-07-14T17:35:03.286Z,1016.66
2017-07-14T17:40:02.771Z,1016.71
2017-07-14T17:45:03.427Z,1016.77
2017-07-14T17:50:02.940Z,1016.81
2017-07-14T17:55:03.383Z,1016.83
2017-07-14T18:00:02.778Z,1016.81
2017-07-14T18:05:03.359Z,1016.88
2017-07-14T18:10:02.690Z,1016.88
2017-07-14T18:15:03.349Z,1016.9
2017-07-14T18:20:02.872Z,1016.9
2017-07-14T18:25:03.322Z,1016.93
2017-07-14T18:30:02.756Z,1016.98
2017-07-14T18:35:03.347Z,1017.01
2017-07-14T18:40:02.693Z,1017
2017-07-14T18:45:03.399Z,1017.1
2017-07-14T18:50:02.720Z,1017.19
2017-07-14T18:55:03.256Z,1017.26
2017-07-14T19:00:02.804Z,1017.28
2017-07-14T19:05:03.293Z,1017.38
2017-07-14T19:10:02.894Z,1017.38
2017-07-14T19:15:03.342Z,1017.44
2017-07-14T19:20:02.907Z,1017.48
2017-07-14T19:25:03.570Z,1017.5
2017-07-14T19:30:02.922Z,1017.55
2017-07-14T19:35:03.584Z,1017.61
2017-07-14T19:40:02.909Z,1017.63
2017-07-14T19:45:03.398Z,1017.66
2017-07-14T19:50:02.669Z,1017.77
2017-07-14T19:55:03.290Z,1017.79
2017-07-14T20:00:02.946Z,1017.93
2017-07-14T20:05:03.404Z,1017.99
2017-07-14T20:10:02.935Z,1017.98
2017-07-14T20:15:03.549Z,1018.01
2017-07-14T20:20:02.856Z,1018.09
2017-07-14T20:25:03.328Z,1018.1
2017-07-14T20:30:02.615Z,1018.19
2017-07-14T20:35:03.120Z,1018.16
2017-07-14T20:40:03.517Z,1018.2
2017-07-14T20:45:02.871Z,1018.29
2017-07-14T20:50:03.463Z,1018.39
2017-07-14T20:55:02.730Z,1018.48
2017-07-14T21:00:03.386Z,1018.44
2017-07-14T21:05:02.635Z,1018.46
2017-07-14T21:10:03.127Z,1018.48
2017-07-14T21:15:03.556Z,1018.53
2017-07-14T21:20:02.875Z,1018.59
2017-07-14T21:25:03.440Z,1018.6
2017-07-14T21:30:02.871Z,1018.71
2017-07-14T21:35:03.310Z,1018.67
2017-07-14T21:40:02.621Z,1018.71
2017-07-14T21:45:03.207Z,1018.75
2017-07-14T21:50:02.752Z,1018.7
2017-07-14T21:55:03.283Z,1018.69
2017-07-14T22:00:02.846Z,1018.62
2017-07-14T22:05:03.431Z,1018.69
2017-07-14T22:10:02.925Z,1018.75
2017-07-14T22:15:03.404Z,1018.82
2017-07-14T22:20:02.863Z,1018.81
2017-07-14T22:25:03.372Z,1018.88
2017-07-14T22:30:02.884Z,1018.9
2017-07-14T22:35:03.480Z,1018.91
2017-07-14T22:40:02.795Z,1018.97
2017-07-14T22:45:03.388Z,1019.01
2017-07-14T22:50:02.822Z,1019
2017-07-14T22:55:03.291Z,1018.96
2017-07-14T23:00:02.941Z,1019.02
2017-07-14T23:05:03.367Z,1019.09
2017-07-14T23:10:02.722Z,1019.08
2017-07-14T23:15:03.125Z,1019.06
2017-07-14T23:20:03.622Z,1019.03
2017-07-14T23:25:02.927Z,1019.04
2017-07-14T23:30:03.381Z,1018.99
2017-07-14T23:35:02.796Z,1018.98
2017-07-14T23:40:03.514Z,1019.01
2017-07-14T23:45:02.940Z,1019.08
2017-07-14T23:50:03.426Z,1019.15
2017-07-14T23:55:02.866Z,1019.17
